sensor_id;sensor_type;location;lat;lon;timestamp;P1;durP1;ratioP1;P2;durP2;ratioP2
54171;SDS011;40076;52.354;4.970;2023-01-01T00:01:28;66.28;;;44.60;;
54171;SDS011;40076;52.354;4.970;2023-01-01T00:03:55;87.53;;;55.70;;
54171;SDS011;40076;52.354;4.970;2023-01-01T00:06:22;84.07;;;56.95;;
54171;SDS011;40076;52.354;4.970;2023-01-01T00:08:48;72.15;;;47.00;;
54171;SDS011;40076;52.354;4.970;2023-01-01T00:11:34;59.30;;;38.97;;
54171;SDS011;40076;52.354;4.970;2023-01-01T00:13:59;65.40;;;46.15;;
54171;SDS011;40076;52.354;4.970;2023-01-01T00:16:24;58.65;;;40.45;;
54171;SDS011;40076;52.354;4.970;2023-01-01T00:18:50;59.00;;;36.28;;
54171;SDS011;40076;52.354;4.970;2023-01-01T00:21:15;55.78;;;37.05;;
54171;SDS011;40076;52.354;4.970;2023-01-01T00:23:41;59.17;;;34.63;;
54171;SDS011;40076;52.354;4.970;2023-01-01T00:26:15;57.05;;;35.75;;
54171;SDS011;40076;52.354;4.970;2023-01-01T00:28:42;60.83;;;35.40;;
54171;SDS011;40076;52.354;4.970;2023-01-01T00:31:09;56.30;;;34.90;;
54171;SDS011;40076;52.354;4.970;2023-01-01T00:33:41;50.38;;;32.85;;
54171;SDS011;40076;52.354;4.970;2023-01-01T00:38:33;45.13;;;28.05;;
54171;SDS011;40076;52.354;4.970;2023-01-01T00:41:06;47.10;;;28.20;;
54171;SDS011;40076;52.354;4.970;2023-01-01T00:43:32;54.78;;;30.08;;
54171;SDS011;40076;52.354;4.970;2023-01-01T00:45:58;39.40;;;24.85;;
54171;SDS011;40076;52.354;4.970;2023-01-01T00:48:23;42.60;;;25.65;;
54171;SDS011;40076;52.354;4.970;2023-01-01T00:50:52;34.08;;;22.20;;
54171;SDS011;40076;52.354;4.970;2023-01-01T00:53:18;32.03;;;19.52;;
54171;SDS011;40076;52.354;4.970;2023-01-01T00:55:46;29.20;;;16.58;;
54171;SDS011;40076;52.354;4.970;2023-01-01T00:58:12;35.58;;;17.45;;
54171;SDS011;40076;52.354;4.970;2023-01-01T01:00:38;30.08;;;17.45;;
54171;SDS011;40076;52.354;4.970;2023-01-01T01:03:06;36.25;;;16.33;;
54171;SDS011;40076;52.354;4.970;2023-01-01T01:05:32;30.17;;;15.98;;
54171;SDS011;40076;52.354;4.970;2023-01-01T01:08:01;27.52;;;13.95;;
54171;SDS011;40076;52.354;4.970;2023-01-01T01:10:26;27.33;;;14.00;;
54171;SDS011;40076;52.354;4.970;2023-01-01T01:12:52;25.58;;;14.70;;
54171;SDS011;40076;52.354;4.970;2023-01-01T01:15:17;27.73;;;12.52;;
54171;SDS011;40076;52.354;4.970;2023-01-01T01:17:43;28.25;;;13.65;;
54171;SDS011;40076;52.354;4.970;2023-01-01T01:20:09;26.00;;;11.73;;
54171;SDS011;40076;52.354;4.970;2023-01-01T01:22:35;25.40;;;12.38;;
54171;SDS011;40076;52.354;4.970;2023-01-01T01:25:00;28.63;;;12.30;;
54171;SDS011;40076;52.354;4.970;2023-01-01T01:27:26;29.48;;;11.85;;
54171;SDS011;40076;52.354;4.970;2023-01-01T01:29:52;21.77;;;10.38;;
54171;SDS011;40076;52.354;4.970;2023-01-01T01:32:18;27.13;;;11.35;;
54171;SDS011;40076;52.354;4.970;2023-01-01T01:34:44;18.63;;;8.55;;
54171;SDS011;40076;52.354;4.970;2023-01-01T01:37:10;20.55;;;8.27;;
54171;SDS011;40076;52.354;4.970;2023-01-01T01:39:36;25.10;;;9.25;;
54171;SDS011;40076;52.354;4.970;2023-01-01T01:42:02;20.83;;;7.35;;
54171;SDS011;40076;52.354;4.970;2023-01-01T01:44:48;19.38;;;8.20;;
54171;SDS011;40076;52.354;4.970;2023-01-01T01:47:39;17.80;;;6.90;;
54171;SDS011;40076;52.354;4.970;2023-01-01T01:50:08;17.92;;;7.20;;
54171;SDS011;40076;52.354;4.970;2023-01-01T01:52:40;15.52;;;6.10;;
54171;SDS011;40076;52.354;4.970;2023-01-01T01:55:12;18.25;;;5.43;;
54171;SDS011;40076;52.354;4.970;2023-01-01T01:57:39;19.60;;;6.88;;
54171;SDS011;40076;52.354;4.970;2023-01-01T02:00:05;20.35;;;5.57;;
54171;SDS011;40076;52.354;4.970;2023-01-01T02:02:39;21.38;;;4.90;;
54171;SDS011;40076;52.354;4.970;2023-01-01T02:05:15;18.27;;;5.72;;
54171;SDS011;40076;52.354;4.970;2023-01-01T02:07:44;15.60;;;4.38;;
54171;SDS011;40076;52.354;4.970;2023-01-01T02:10:10;14.35;;;4.88;;
54171;SDS011;40076;52.354;4.970;2023-01-01T02:12:35;13.40;;;4.65;;
54171;SDS011;40076;52.354;4.970;2023-01-01T02:15:00;16.48;;;3.85;;
54171;SDS011;40076;52.354;4.970;2023-01-01T02:20:14;12.82;;;4.50;;
54171;SDS011;40076;52.354;4.970;2023-01-01T02:22:53;10.23;;;3.40;;
54171;SDS011;40076;52.354;4.970;2023-01-01T02:28:40;13.15;;;3.42;;
54171;SDS011;40076;52.354;4.970;2023-01-01T02:31:30;9.60;;;3.30;;
54171;SDS011;40076;52.354;4.970;2023-01-01T02:34:00;13.15;;;3.70;;
54171;SDS011;40076;52.354;4.970;2023-01-01T02:36:30;8.98;;;3.40;;
54171;SDS011;40076;52.354;4.970;2023-01-01T02:39:00;12.90;;;3.83;;
54171;SDS011;40076;52.354;4.970;2023-01-01T02:41:33;13.95;;;3.10;;
54171;SDS011;40076;52.354;4.970;2023-01-01T02:44:03;9.73;;;2.88;;
54171;SDS011;40076;52.354;4.970;2023-01-01T02:46:30;13.38;;;3.55;;
54171;SDS011;40076;52.354;4.970;2023-01-01T02:48:56;12.43;;;3.00;;
54171;SDS011;40076;52.354;4.970;2023-01-01T02:54:10;15.57;;;3.15;;
54171;SDS011;40076;52.354;4.970;2023-01-01T02:59:19;9.73;;;2.63;;
54171;SDS011;40076;52.354;4.970;2023-01-01T03:02:18;9.18;;;3.25;;
54171;SDS011;40076;52.354;4.970;2023-01-01T03:15:57;12.02;;;2.63;;
54171;SDS011;40076;52.354;4.970;2023-01-01T03:21:08;10.90;;;2.88;;
54171;SDS011;40076;52.354;4.970;2023-01-01T03:23:37;10.70;;;2.63;;
54171;SDS011;40076;52.354;4.970;2023-01-01T03:26:10;10.43;;;2.90;;
54171;SDS011;40076;52.354;4.970;2023-01-01T03:28:51;17.25;;;3.97;;
54171;SDS011;40076;52.354;4.970;2023-01-01T03:33:54;11.43;;;2.85;;
54171;SDS011;40076;52.354;4.970;2023-01-01T03:36:36;13.48;;;3.45;;
54171;SDS011;40076;52.354;4.970;2023-01-01T03:39:12;9.95;;;2.67;;
54171;SDS011;40076;52.354;4.970;2023-01-01T03:44:31;11.50;;;2.15;;
54171;SDS011;40076;52.354;4.970;2023-01-01T03:46:59;8.82;;;2.33;;
54171;SDS011;40076;52.354;4.970;2023-01-01T03:49:25;12.57;;;2.72;;
54171;SDS011;40076;52.354;4.970;2023-01-01T03:52:04;12.52;;;2.95;;
54171;SDS011;40076;52.354;4.970;2023-01-01T04:00:15;11.10;;;2.75;;
54171;SDS011;40076;52.354;4.970;2023-01-01T04:05:08;8.53;;;2.10;;
54171;SDS011;40076;52.354;4.970;2023-01-01T04:07:35;12.90;;;2.20;;
54171;SDS011;40076;52.354;4.970;2023-01-01T04:10:02;7.05;;;1.88;;
54171;SDS011;40076;52.354;4.970;2023-01-01T04:12:41;7.00;;;1.85;;
54171;SDS011;40076;52.354;4.970;2023-01-01T04:15:09;9.85;;;2.20;;
54171;SDS011;40076;52.354;4.970;2023-01-01T04:17:37;10.10;;;2.10;;
54171;SDS011;40076;52.354;4.970;2023-01-01T04:20:02;5.30;;;1.60;;
54171;SDS011;40076;52.354;4.970;2023-01-01T04:22:28;8.45;;;1.70;;
54171;SDS011;40076;52.354;4.970;2023-01-01T04:24:53;10.70;;;2.08;;
54171;SDS011;40076;52.354;4.970;2023-01-01T04:27:19;7.47;;;1.50;;
54171;SDS011;40076;52.354;4.970;2023-01-01T04:29:44;7.03;;;1.40;;
54171;SDS011;40076;52.354;4.970;2023-01-01T04:32:09;6.15;;;1.48;;
54171;SDS011;40076;52.354;4.970;2023-01-01T04:34:35;5.60;;;1.30;;
54171;SDS011;40076;52.354;4.970;2023-01-01T04:37:00;10.80;;;2.55;;
54171;SDS011;40076;52.354;4.970;2023-01-01T04:39:26;7.43;;;1.83;;
54171;SDS011;40076;52.354;4.970;2023-01-01T04:41:51;7.47;;;1.40;;
54171;SDS011;40076;52.354;4.970;2023-01-01T04:44:16;9.10;;;1.80;;
54171;SDS011;40076;52.354;4.970;2023-01-01T04:46:42;7.05;;;1.30;;
54171;SDS011;40076;52.354;4.970;2023-01-01T04:49:08;8.05;;;1.60;;
54171;SDS011;40076;52.354;4.970;2023-01-01T04:51:33;11.57;;;1.83;;
54171;SDS011;40076;52.354;4.970;2023-01-01T04:53:58;9.18;;;2.08;;
54171;SDS011;40076;52.354;4.970;2023-01-01T04:56:26;7.88;;;1.73;;
54171;SDS011;40076;52.354;4.970;2023-01-01T04:58:51;7.57;;;1.80;;
54171;SDS011;40076;52.354;4.970;2023-01-01T05:01:21;9.63;;;1.38;;
54171;SDS011;40076;52.354;4.970;2023-01-01T05:03:48;6.15;;;1.60;;
54171;SDS011;40076;52.354;4.970;2023-01-01T05:06:14;7.80;;;1.63;;
54171;SDS011;40076;52.354;4.970;2023-01-01T05:08:40;8.63;;;1.83;;
54171;SDS011;40076;52.354;4.970;2023-01-01T05:11:11;9.07;;;1.80;;
54171;SDS011;40076;52.354;4.970;2023-01-01T05:13:42;10.50;;;1.80;;
54171;SDS011;40076;52.354;4.970;2023-01-01T05:16:10;6.20;;;1.52;;
54171;SDS011;40076;52.354;4.970;2023-01-01T05:18:39;12.13;;;1.58;;
54171;SDS011;40076;52.354;4.970;2023-01-01T05:21:10;10.73;;;1.73;;
54171;SDS011;40076;52.354;4.970;2023-01-01T05:23:45;11.55;;;2.22;;
54171;SDS011;40076;52.354;4.970;2023-01-01T05:26:18;11.23;;;2.05;;
54171;SDS011;40076;52.354;4.970;2023-01-01T05:28:52;15.93;;;2.22;;
54171;SDS011;40076;52.354;4.970;2023-01-01T05:31:19;15.63;;;2.40;;
54171;SDS011;40076;52.354;4.970;2023-01-01T05:33:45;14.27;;;2.92;;
54171;SDS011;40076;52.354;4.970;2023-01-01T05:36:16;9.32;;;1.80;;
54171;SDS011;40076;52.354;4.970;2023-01-01T05:38:43;15.93;;;2.53;;
54171;SDS011;40076;52.354;4.970;2023-01-01T05:41:09;17.05;;;2.60;;
54171;SDS011;40076;52.354;4.970;2023-01-01T05:43:37;11.40;;;2.40;;
54171;SDS011;40076;52.354;4.970;2023-01-01T05:46:03;12.07;;;2.30;;
54171;SDS011;40076;52.354;4.970;2023-01-01T05:48:31;15.18;;;2.83;;
54171;SDS011;40076;52.354;4.970;2023-01-01T05:51:03;13.25;;;3.03;;
54171;SDS011;40076;52.354;4.970;2023-01-01T05:53:39;15.32;;;2.50;;
54171;SDS011;40076;52.354;4.970;2023-01-01T05:56:05;16.20;;;3.08;;
54171;SDS011;40076;52.354;4.970;2023-01-01T05:58:32;16.13;;;2.53;;
54171;SDS011;40076;52.354;4.970;2023-01-01T06:01:32;12.32;;;1.92;;
54171;SDS011;40076;52.354;4.970;2023-01-01T06:03:52;14.05;;;3.10;;
54171;SDS011;40076;52.354;4.970;2023-01-01T06:06:19;18.40;;;2.75;;
54171;SDS011;40076;52.354;4.970;2023-01-01T06:08:50;16.95;;;2.70;;
54171;SDS011;40076;52.354;4.970;2023-01-01T06:13:45;17.35;;;2.92;;
54171;SDS011;40076;52.354;4.970;2023-01-01T06:16:11;17.13;;;3.00;;
54171;SDS011;40076;52.354;4.970;2023-01-01T06:18:36;14.88;;;2.78;;
54171;SDS011;40076;52.354;4.970;2023-01-01T06:21:21;14.05;;;2.85;;
54171;SDS011;40076;52.354;4.970;2023-01-01T06:23:48;19.00;;;3.00;;
54171;SDS011;40076;52.354;4.970;2023-01-01T06:26:14;14.45;;;2.78;;
54171;SDS011;40076;52.354;4.970;2023-01-01T06:28:42;18.92;;;2.70;;
54171;SDS011;40076;52.354;4.970;2023-01-01T06:31:09;20.92;;;3.03;;
54171;SDS011;40076;52.354;4.970;2023-01-01T06:33:36;23.85;;;3.58;;
54171;SDS011;40076;52.354;4.970;2023-01-01T06:36:02;20.52;;;2.83;;
54171;SDS011;40076;52.354;4.970;2023-01-01T06:38:31;20.70;;;3.67;;
54171;SDS011;40076;52.354;4.970;2023-01-01T06:40:57;17.83;;;3.35;;
54171;SDS011;40076;52.354;4.970;2023-01-01T06:43:24;25.65;;;3.35;;
54171;SDS011;40076;52.354;4.970;2023-01-01T06:46:02;18.02;;;2.75;;
54171;SDS011;40076;52.354;4.970;2023-01-01T06:48:30;19.00;;;3.10;;
54171;SDS011;40076;52.354;4.970;2023-01-01T06:50:57;19.77;;;3.20;;
54171;SDS011;40076;52.354;4.970;2023-01-01T06:53:28;21.92;;;3.30;;
54171;SDS011;40076;52.354;4.970;2023-01-01T06:55:53;18.70;;;4.00;;
54171;SDS011;40076;52.354;4.970;2023-01-01T06:58:19;18.92;;;3.05;;
54171;SDS011;40076;52.354;4.970;2023-01-01T07:00:44;19.05;;;3.50;;
54171;SDS011;40076;52.354;4.970;2023-01-01T07:03:09;18.98;;;3.03;;
54171;SDS011;40076;52.354;4.970;2023-01-01T07:05:35;20.88;;;3.85;;
54171;SDS011;40076;52.354;4.970;2023-01-01T07:08:00;23.27;;;3.95;;
54171;SDS011;40076;52.354;4.970;2023-01-01T07:10:25;21.42;;;3.40;;
54171;SDS011;40076;52.354;4.970;2023-01-01T07:12:51;23.48;;;3.60;;
54171;SDS011;40076;52.354;4.970;2023-01-01T07:15:16;18.83;;;3.53;;
54171;SDS011;40076;52.354;4.970;2023-01-01T07:17:41;21.88;;;3.20;;
54171;SDS011;40076;52.354;4.970;2023-01-01T07:20:07;24.30;;;2.90;;
54171;SDS011;40076;52.354;4.970;2023-01-01T07:22:32;22.25;;;3.22;;
54171;SDS011;40076;52.354;4.970;2023-01-01T07:24:59;20.17;;;3.03;;
54171;SDS011;40076;52.354;4.970;2023-01-01T07:27:24;22.25;;;3.80;;
54171;SDS011;40076;52.354;4.970;2023-01-01T07:29:49;22.23;;;3.83;;
54171;SDS011;40076;52.354;4.970;2023-01-01T07:32:14;25.27;;;3.03;;
54171;SDS011;40076;52.354;4.970;2023-01-01T07:34:40;24.48;;;3.85;;
54171;SDS011;40076;52.354;4.970;2023-01-01T07:37:05;20.23;;;3.35;;
54171;SDS011;40076;52.354;4.970;2023-01-01T07:39:30;21.00;;;3.75;;
54171;SDS011;40076;52.354;4.970;2023-01-01T07:41:55;14.48;;;2.67;;
54171;SDS011;40076;52.354;4.970;2023-01-01T07:44:21;18.20;;;2.65;;
54171;SDS011;40076;52.354;4.970;2023-01-01T07:46:46;14.88;;;3.45;;
54171;SDS011;40076;52.354;4.970;2023-01-01T07:49:11;27.27;;;4.30;;
54171;SDS011;40076;52.354;4.970;2023-01-01T07:51:37;24.20;;;3.53;;
54171;SDS011;40076;52.354;4.970;2023-01-01T07:54:02;17.33;;;3.13;;
54171;SDS011;40076;52.354;4.970;2023-01-01T07:56:27;24.60;;;3.70;;
54171;SDS011;40076;52.354;4.970;2023-01-01T07:58:53;21.65;;;3.65;;
54171;SDS011;40076;52.354;4.970;2023-01-01T08:01:18;22.40;;;3.30;;
54171;SDS011;40076;52.354;4.970;2023-01-01T08:03:44;17.80;;;2.90;;
54171;SDS011;40076;52.354;4.970;2023-01-01T08:06:10;21.35;;;3.67;;
54171;SDS011;40076;52.354;4.970;2023-01-01T08:08:37;17.75;;;2.88;;
54171;SDS011;40076;52.354;4.970;2023-01-01T08:11:02;21.85;;;3.17;;
54171;SDS011;40076;52.354;4.970;2023-01-01T08:13:28;17.58;;;3.03;;
54171;SDS011;40076;52.354;4.970;2023-01-01T08:15:53;21.00;;;4.38;;
54171;SDS011;40076;52.354;4.970;2023-01-01T08:18:19;14.95;;;2.50;;
54171;SDS011;40076;52.354;4.970;2023-01-01T08:20:45;15.27;;;2.28;;
54171;SDS011;40076;52.354;4.970;2023-01-01T08:23:10;24.35;;;3.42;;
54171;SDS011;40076;52.354;4.970;2023-01-01T08:25:35;21.63;;;3.60;;
54171;SDS011;40076;52.354;4.970;2023-01-01T08:28:01;26.35;;;3.83;;
54171;SDS011;40076;52.354;4.970;2023-01-01T08:30:26;22.75;;;2.75;;
54171;SDS011;40076;52.354;4.970;2023-01-01T08:32:52;13.80;;;2.20;;
54171;SDS011;40076;52.354;4.970;2023-01-01T08:35:17;17.30;;;2.95;;
54171;SDS011;40076;52.354;4.970;2023-01-01T08:37:42;16.83;;;3.33;;
54171;SDS011;40076;52.354;4.970;2023-01-01T08:40:09;19.10;;;2.67;;
54171;SDS011;40076;52.354;4.970;2023-01-01T08:42:36;17.50;;;2.03;;
54171;SDS011;40076;52.354;4.970;2023-01-01T08:45:02;21.35;;;2.60;;
54171;SDS011;40076;52.354;4.970;2023-01-01T08:47:27;20.05;;;2.65;;
54171;SDS011;40076;52.354;4.970;2023-01-01T08:49:52;16.85;;;2.72;;
54171;SDS011;40076;52.354;4.970;2023-01-01T08:52:18;21.50;;;2.75;;
54171;SDS011;40076;52.354;4.970;2023-01-01T08:54:44;17.52;;;2.35;;
54171;SDS011;40076;52.354;4.970;2023-01-01T08:57:10;12.05;;;2.35;;
54171;SDS011;40076;52.354;4.970;2023-01-01T08:59:35;18.58;;;2.90;;
54171;SDS011;40076;52.354;4.970;2023-01-01T09:02:01;16.45;;;2.70;;
54171;SDS011;40076;52.354;4.970;2023-01-01T09:04:27;19.52;;;2.70;;
54171;SDS011;40076;52.354;4.970;2023-01-01T09:06:52;17.35;;;2.80;;
54171;SDS011;40076;52.354;4.970;2023-01-01T09:09:17;18.63;;;2.53;;
54171;SDS011;40076;52.354;4.970;2023-01-01T09:11:49;20.55;;;2.55;;
54171;SDS011;40076;52.354;4.970;2023-01-01T09:14:16;14.05;;;2.15;;
54171;SDS011;40076;52.354;4.970;2023-01-01T09:16:41;23.55;;;2.72;;
54171;SDS011;40076;52.354;4.970;2023-01-01T09:19:06;16.52;;;2.50;;
54171;SDS011;40076;52.354;4.970;2023-01-01T09:21:32;15.15;;;2.38;;
54171;SDS011;40076;52.354;4.970;2023-01-01T09:23:57;16.70;;;2.45;;
54171;SDS011;40076;52.354;4.970;2023-01-01T09:26:22;28.13;;;3.47;;
54171;SDS011;40076;52.354;4.970;2023-01-01T09:28:47;22.27;;;2.65;;
54171;SDS011;40076;52.354;4.970;2023-01-01T09:31:13;12.05;;;2.20;;
54171;SDS011;40076;52.354;4.970;2023-01-01T09:33:38;18.95;;;2.92;;
54171;SDS011;40076;52.354;4.970;2023-01-01T09:36:11;15.88;;;2.53;;
54171;SDS011;40076;52.354;4.970;2023-01-01T09:38:55;13.70;;;2.40;;
54171;SDS011;40076;52.354;4.970;2023-01-01T09:46:57;16.02;;;2.20;;
54171;SDS011;40076;52.354;4.970;2023-01-01T09:49:36;18.98;;;3.25;;
54171;SDS011;40076;52.354;4.970;2023-01-01T09:52:04;19.27;;;3.05;;
54171;SDS011;40076;52.354;4.970;2023-01-01T09:54:31;15.05;;;2.15;;
54171;SDS011;40076;52.354;4.970;2023-01-01T09:57:01;23.85;;;3.13;;
54171;SDS011;40076;52.354;4.970;2023-01-01T09:59:30;15.52;;;2.53;;
54171;SDS011;40076;52.354;4.970;2023-01-01T10:01:58;11.02;;;2.08;;
54171;SDS011;40076;52.354;4.970;2023-01-01T10:13:17;17.13;;;2.55;;
54171;SDS011;40076;52.354;4.970;2023-01-01T10:15:52;11.88;;;2.00;;
54171;SDS011;40076;52.354;4.970;2023-01-01T10:18:23;13.45;;;2.17;;
54171;SDS011;40076;52.354;4.970;2023-01-01T10:20:58;18.10;;;2.03;;
54171;SDS011;40076;52.354;4.970;2023-01-01T10:26:19;17.55;;;2.35;;
54171;SDS011;40076;52.354;4.970;2023-01-01T10:29:34;15.48;;;2.17;;
54171;SDS011;40076;52.354;4.970;2023-01-01T10:31:41;13.63;;;2.38;;
54171;SDS011;40076;52.354;4.970;2023-01-01T10:36:53;16.88;;;2.42;;
54171;SDS011;40076;52.354;4.970;2023-01-01T10:39:19;19.20;;;2.88;;
54171;SDS011;40076;52.354;4.970;2023-01-01T10:41:45;21.92;;;3.38;;
54171;SDS011;40076;52.354;4.970;2023-01-01T10:44:11;19.42;;;2.53;;
54171;SDS011;40076;52.354;4.970;2023-01-01T10:46:43;20.40;;;3.08;;
54171;SDS011;40076;52.354;4.970;2023-01-01T10:49:16;17.08;;;2.47;;
54171;SDS011;40076;52.354;4.970;2023-01-01T10:51:42;14.35;;;2.28;;
54171;SDS011;40076;52.354;4.970;2023-01-01T10:54:30;17.05;;;2.08;;
54171;SDS011;40076;52.354;4.970;2023-01-01T10:56:58;13.80;;;2.58;;
54171;SDS011;40076;52.354;4.970;2023-01-01T10:59:38;14.02;;;2.85;;
54171;SDS011;40076;52.354;4.970;2023-01-01T11:04:46;15.73;;;2.63;;
54171;SDS011;40076;52.354;4.970;2023-01-01T11:07:17;11.00;;;2.00;;
54171;SDS011;40076;52.354;4.970;2023-01-01T11:09:58;12.88;;;2.20;;
54171;SDS011;40076;52.354;4.970;2023-01-01T11:12:28;12.70;;;2.40;;
54171;SDS011;40076;52.354;4.970;2023-01-01T11:14:55;19.73;;;3.38;;
54171;SDS011;40076;52.354;4.970;2023-01-01T11:17:30;19.63;;;3.38;;
54171;SDS011;40076;52.354;4.970;2023-01-01T11:19:58;14.07;;;2.78;;
54171;SDS011;40076;52.354;4.970;2023-01-01T11:25:21;15.80;;;2.17;;
54171;SDS011;40076;52.354;4.970;2023-01-01T11:27:50;16.65;;;2.70;;
54171;SDS011;40076;52.354;4.970;2023-01-01T11:30:21;16.90;;;2.40;;
54171;SDS011;40076;52.354;4.970;2023-01-01T11:32:48;15.52;;;2.63;;
54171;SDS011;40076;52.354;4.970;2023-01-01T11:35:20;17.35;;;2.42;;
54171;SDS011;40076;52.354;4.970;2023-01-01T11:37:49;14.10;;;2.05;;
54171;SDS011;40076;52.354;4.970;2023-01-01T11:40:17;12.25;;;2.10;;
54171;SDS011;40076;52.354;4.970;2023-01-01T11:42:47;20.42;;;2.97;;
54171;SDS011;40076;52.354;4.970;2023-01-01T11:47:50;18.70;;;3.17;;
54171;SDS011;40076;52.354;4.970;2023-01-01T11:50:33;13.82;;;2.17;;
54171;SDS011;40076;52.354;4.970;2023-01-01T11:53:16;16.40;;;2.58;;
54171;SDS011;40076;52.354;4.970;2023-01-01T11:55:51;15.57;;;3.05;;
54171;SDS011;40076;52.354;4.970;2023-01-01T12:06:39;15.35;;;2.40;;
54171;SDS011;40076;52.354;4.970;2023-01-01T12:09:51;16.08;;;2.70;;
54171;SDS011;40076;52.354;4.970;2023-01-01T12:15:21;19.13;;;2.83;;
54171;SDS011;40076;52.354;4.970;2023-01-01T12:17:59;19.00;;;2.65;;
54171;SDS011;40076;52.354;4.970;2023-01-01T12:20:30;18.00;;;2.70;;
54171;SDS011;40076;52.354;4.970;2023-01-01T12:22:58;15.65;;;2.38;;
54171;SDS011;40076;52.354;4.970;2023-01-01T12:25:25;14.10;;;2.47;;
54171;SDS011;40076;52.354;4.970;2023-01-01T12:28:01;12.68;;;2.45;;
54171;SDS011;40076;52.354;4.970;2023-01-01T12:38:39;16.70;;;3.10;;
54171;SDS011;40076;52.354;4.970;2023-01-01T12:44:00;12.13;;;2.45;;
54171;SDS011;40076;52.354;4.970;2023-01-01T12:46:41;13.68;;;2.70;;
54171;SDS011;40076;52.354;4.970;2023-01-01T12:51:46;15.73;;;2.97;;
54171;SDS011;40076;52.354;4.970;2023-01-01T13:00:23;16.00;;;3.13;;
54171;SDS011;40076;52.354;4.970;2023-01-01T13:02:54;18.35;;;2.67;;
54171;SDS011;40076;52.354;4.970;2023-01-01T13:05:34;14.55;;;2.90;;
54171;SDS011;40076;52.354;4.970;2023-01-01T13:08:02;17.95;;;2.90;;
54171;SDS011;40076;52.354;4.970;2023-01-01T13:10:32;20.48;;;3.20;;
54171;SDS011;40076;52.354;4.970;2023-01-01T13:13:01;18.88;;;2.80;;
54171;SDS011;40076;52.354;4.970;2023-01-01T13:20:45;14.20;;;3.08;;
54171;SDS011;40076;52.354;4.970;2023-01-01T13:42:42;11.15;;;3.03;;
54171;SDS011;40076;52.354;4.970;2023-01-01T13:45:28;15.55;;;2.42;;
54171;SDS011;40076;52.354;4.970;2023-01-01T14:04:14;20.40;;;3.55;;
54171;SDS011;40076;52.354;4.970;2023-01-01T14:06:48;19.98;;;3.70;;
54171;SDS011;40076;52.354;4.970;2023-01-01T14:09:15;13.65;;;3.63;;
54171;SDS011;40076;52.354;4.970;2023-01-01T14:11:44;14.57;;;3.15;;
54171;SDS011;40076;52.354;4.970;2023-01-01T14:16:51;13.70;;;2.78;;
54171;SDS011;40076;52.354;4.970;2023-01-01T14:19:19;23.25;;;4.07;;
54171;SDS011;40076;52.354;4.970;2023-01-01T14:21:45;21.02;;;3.65;;
54171;SDS011;40076;52.354;4.970;2023-01-01T14:24:10;17.75;;;3.28;;
54171;SDS011;40076;52.354;4.970;2023-01-01T14:26:41;15.02;;;2.78;;
54171;SDS011;40076;52.354;4.970;2023-01-01T14:29:08;18.73;;;3.40;;
54171;SDS011;40076;52.354;4.970;2023-01-01T14:31:39;18.92;;;3.42;;
54171;SDS011;40076;52.354;4.970;2023-01-01T14:34:13;16.55;;;3.20;;
54171;SDS011;40076;52.354;4.970;2023-01-01T14:36:47;17.40;;;3.20;;
54171;SDS011;40076;52.354;4.970;2023-01-01T14:41:57;14.50;;;2.83;;
54171;SDS011;40076;52.354;4.970;2023-01-01T14:44:27;16.30;;;3.40;;
54171;SDS011;40076;52.354;4.970;2023-01-01T14:46:58;20.17;;;3.80;;
54171;SDS011;40076;52.354;4.970;2023-01-01T14:49:28;18.95;;;3.67;;
54171;SDS011;40076;52.354;4.970;2023-01-01T14:51:59;19.17;;;4.07;;
54171;SDS011;40076;52.354;4.970;2023-01-01T14:54:29;17.88;;;3.35;;
54171;SDS011;40076;52.354;4.970;2023-01-01T14:56:57;16.58;;;3.05;;
54171;SDS011;40076;52.354;4.970;2023-01-01T14:59:27;15.93;;;3.00;;
54171;SDS011;40076;52.354;4.970;2023-01-01T15:02:01;18.70;;;4.38;;
54171;SDS011;40076;52.354;4.970;2023-01-01T15:07:03;16.27;;;2.90;;
54171;SDS011;40076;52.354;4.970;2023-01-01T15:09:30;12.23;;;2.72;;
54171;SDS011;40076;52.354;4.970;2023-01-01T15:11:58;16.20;;;3.22;;
54171;SDS011;40076;52.354;4.970;2023-01-01T15:14:28;18.52;;;3.47;;
54171;SDS011;40076;52.354;4.970;2023-01-01T15:17:03;23.75;;;3.72;;
54171;SDS011;40076;52.354;4.970;2023-01-01T15:19:30;16.08;;;2.83;;
54171;SDS011;40076;52.354;4.970;2023-01-01T15:21:56;16.05;;;3.17;;
54171;SDS011;40076;52.354;4.970;2023-01-01T15:24:21;14.30;;;3.05;;
54171;SDS011;40076;52.354;4.970;2023-01-01T15:29:26;12.88;;;3.50;;
54171;SDS011;40076;52.354;4.970;2023-01-01T15:32:09;20.83;;;5.50;;
54171;SDS011;40076;52.354;4.970;2023-01-01T15:34:40;15.38;;;3.72;;
54171;SDS011;40076;52.354;4.970;2023-01-01T15:37:13;17.63;;;3.60;;
54171;SDS011;40076;52.354;4.970;2023-01-01T15:40:28;17.38;;;3.92;;
54171;SDS011;40076;52.354;4.970;2023-01-01T15:45:29;15.45;;;3.40;;
54171;SDS011;40076;52.354;4.970;2023-01-01T15:50:31;13.63;;;3.30;;
54171;SDS011;40076;52.354;4.970;2023-01-01T15:53:08;19.50;;;3.38;;
54171;SDS011;40076;52.354;4.970;2023-01-01T15:55:41;15.75;;;3.15;;
54171;SDS011;40076;52.354;4.970;2023-01-01T15:58:18;18.35;;;3.50;;
54171;SDS011;40076;52.354;4.970;2023-01-01T16:00:53;17.25;;;3.92;;
54171;SDS011;40076;52.354;4.970;2023-01-01T16:03:22;13.90;;;2.88;;
54171;SDS011;40076;52.354;4.970;2023-01-01T16:05:50;15.60;;;3.50;;
54171;SDS011;40076;52.354;4.970;2023-01-01T16:08:17;16.83;;;3.38;;
54171;SDS011;40076;52.354;4.970;2023-01-01T16:10:44;15.80;;;3.83;;
54171;SDS011;40076;52.354;4.970;2023-01-01T16:13:09;12.50;;;4.28;;
54171;SDS011;40076;52.354;4.970;2023-01-01T16:15:36;15.70;;;3.55;;
54171;SDS011;40076;52.354;4.970;2023-01-01T16:18:11;14.05;;;4.38;;
54171;SDS011;40076;52.354;4.970;2023-01-01T16:20:38;18.77;;;8.70;;
54171;SDS011;40076;52.354;4.970;2023-01-01T16:23:03;18.70;;;6.45;;
54171;SDS011;40076;52.354;4.970;2023-01-01T16:25:28;16.40;;;3.95;;
54171;SDS011;40076;52.354;4.970;2023-01-01T16:27:54;16.85;;;4.30;;
54171;SDS011;40076;52.354;4.970;2023-01-01T16:30:19;19.60;;;6.05;;
54171;SDS011;40076;52.354;4.970;2023-01-01T16:32:49;18.92;;;5.88;;
54171;SDS011;40076;52.354;4.970;2023-01-01T16:35:14;19.70;;;4.75;;
54171;SDS011;40076;52.354;4.970;2023-01-01T16:37:40;23.40;;;4.90;;
54171;SDS011;40076;52.354;4.970;2023-01-01T16:40:06;15.93;;;4.15;;
54171;SDS011;40076;52.354;4.970;2023-01-01T16:42:32;17.52;;;4.50;;
54171;SDS011;40076;52.354;4.970;2023-01-01T16:44:57;20.58;;;4.80;;
54171;SDS011;40076;52.354;4.970;2023-01-01T16:47:23;19.90;;;6.32;;
54171;SDS011;40076;52.354;4.970;2023-01-01T16:49:48;20.25;;;5.22;;
54171;SDS011;40076;52.354;4.970;2023-01-01T16:52:13;17.85;;;3.97;;
54171;SDS011;40076;52.354;4.970;2023-01-01T16:54:39;15.13;;;3.70;;
54171;SDS011;40076;52.354;4.970;2023-01-01T16:57:04;20.20;;;4.38;;
54171;SDS011;40076;52.354;4.970;2023-01-01T16:59:30;14.18;;;3.80;;
54171;SDS011;40076;52.354;4.970;2023-01-01T17:01:55;18.23;;;4.47;;
54171;SDS011;40076;52.354;4.970;2023-01-01T17:04:20;18.67;;;4.13;;
54171;SDS011;40076;52.354;4.970;2023-01-01T17:06:46;16.00;;;4.15;;
54171;SDS011;40076;52.354;4.970;2023-01-01T17:09:11;18.98;;;4.88;;
54171;SDS011;40076;52.354;4.970;2023-01-01T17:11:37;17.92;;;4.25;;
54171;SDS011;40076;52.354;4.970;2023-01-01T17:14:03;18.02;;;4.47;;
54171;SDS011;40076;52.354;4.970;2023-01-01T17:16:30;19.17;;;4.35;;
54171;SDS011;40076;52.354;4.970;2023-01-01T17:18:56;20.13;;;4.75;;
54171;SDS011;40076;52.354;4.970;2023-01-01T17:21:22;15.73;;;3.42;;
54171;SDS011;40076;52.354;4.970;2023-01-01T17:23:47;17.55;;;4.05;;